Almond, North Carolina
Current Conditions -  °F | °C
As of 5:50 PM on Monday 24 Nov 2014 (Local Time) from KRHP Reporting Station
Clear Clear  
Wind Chill: 17°   Ceiling: Unl
Heat Index: 17°   Visibility: 10mi
Dew Point:   Wind: 8mph
Humidity: 54%   Direction: 220°SW
Pressure: 29.84"   Gusts: NA
Location:  35.37°N, 83.57°W
Report Text: KRHP 242250Z AUTO 22007KT 10SM CLR 17/08 A2984 RMK AO2 T01710078
Loading
Personal Weather Stations






























Interactive Weather Map New forecast layout! Learn more

10-Day Weather Forecast

Advertisements
Track Severe Weather on mobile